sensor_id;sensor_type;location;lat;lon;timestamp;temperature;humidity
33105;DHT22;19476;51.448;6.674;2023-05-24T00:01:23;16.60;42.90
33105;DHT22;19476;51.448;6.674;2023-05-24T00:03:52;16.60;42.50
33105;DHT22;19476;51.448;6.674;2023-05-24T00:06:19;16.60;42.40
33105;DHT22;19476;51.448;6.674;2023-05-24T00:08:45;16.50;42.50
33105;DHT22;19476;51.448;6.674;2023-05-24T00:11:11;16.50;42.60
33105;DHT22;19476;51.448;6.674;2023-05-24T00:13:37;16.50;42.60
33105;DHT22;19476;51.448;6.674;2023-05-24T00:16:03;16.50;42.70
33105;DHT22;19476;51.448;6.674;2023-05-24T00:18:30;16.50;42.80
33105;DHT22;19476;51.448;6.674;2023-05-24T00:20:58;16.50;42.80
33105;DHT22;19476;51.448;6.674;2023-05-24T00:23:25;16.50;43.00
33105;DHT22;19476;51.448;6.674;2023-05-24T00:25:51;16.50;43.00
33105;DHT22;19476;51.448;6.674;2023-05-24T00:28:17;16.50;43.10
33105;DHT22;19476;51.448;6.674;2023-05-24T00:30:43;16.50;43.10
33105;DHT22;19476;51.448;6.674;2023-05-24T00:33:08;16.50;43.20
33105;DHT22;19476;51.448;6.674;2023-05-24T00:35:35;16.50;43.20
33105;DHT22;19476;51.448;6.674;2023-05-24T00:38:00;16.40;43.20
33105;DHT22;19476;51.448;6.674;2023-05-24T00:40:26;16.40;43.20
33105;DHT22;19476;51.448;6.674;2023-05-24T00:42:52;16.40;43.20
33105;DHT22;19476;51.448;6.674;2023-05-24T00:45:18;16.40;43.30
33105;DHT22;19476;51.448;6.674;2023-05-24T00:47:44;16.40;43.50
33105;DHT22;19476;51.448;6.674;2023-05-24T00:50:11;16.40;43.50
33105;DHT22;19476;51.448;6.674;2023-05-24T00:52:40;16.40;43.70
33105;DHT22;19476;51.448;6.674;2023-05-24T00:55:07;16.40;44.20
33105;DHT22;19476;51.448;6.674;2023-05-24T00:57:35;16.40;43.70
33105;DHT22;19476;51.448;6.674;2023-05-24T01:00:02;16.40;43.80
33105;DHT22;19476;51.448;6.674;2023-05-24T01:02:29;16.30;43.80
33105;DHT22;19476;51.448;6.674;2023-05-24T01:04:55;16.30;43.70
33105;DHT22;19476;51.448;6.674;2023-05-24T01:10:30;16.30;44.10
33105;DHT22;19476;51.448;6.674;2023-05-24T01:15:44;16.30;44.30
33105;DHT22;19476;51.448;6.674;2023-05-24T01:18:19;16.30;44.20
33105;DHT22;19476;51.448;6.674;2023-05-24T01:27:35;16.30;44.50
33105;DHT22;19476;51.448;6.674;2023-05-24T01:29:53;16.20;44.60
33105;DHT22;19476;51.448;6.674;2023-05-24T01:32:19;16.30;44.30
33105;DHT22;19476;51.448;6.674;2023-05-24T01:34:46;16.20;44.20
33105;DHT22;19476;51.448;6.674;2023-05-24T01:37:12;16.30;44.30
33105;DHT22;19476;51.448;6.674;2023-05-24T01:39:37;16.20;44.40
33105;DHT22;19476;51.448;6.674;2023-05-24T01:42:10;16.20;44.40
33105;DHT22;19476;51.448;6.674;2023-05-24T01:44:55;16.20;44.70
33105;DHT22;19476;51.448;6.674;2023-05-24T01:49:54;16.20;44.70
33105;DHT22;19476;51.448;6.674;2023-05-24T01:52:24;16.20;44.80
33105;DHT22;19476;51.448;6.674;2023-05-24T01:54:52;16.20;44.80
33105;DHT22;19476;51.448;6.674;2023-05-24T01:57:22;16.10;44.70
33105;DHT22;19476;51.448;6.674;2023-05-24T01:59:49;16.20;44.90
33105;DHT22;19476;51.448;6.674;2023-05-24T02:02:16;16.10;44.90
33105;DHT22;19476;51.448;6.674;2023-05-24T02:04:42;16.10;44.90
33105;DHT22;19476;51.448;6.674;2023-05-24T02:07:08;16.10;44.90
33105;DHT22;19476;51.448;6.674;2023-05-24T02:09:34;16.10;45.40
33105;DHT22;19476;51.448;6.674;2023-05-24T02:12:00;16.10;44.90
33105;DHT22;19476;51.448;6.674;2023-05-24T02:14:26;16.10;44.90
33105;DHT22;19476;51.448;6.674;2023-05-24T02:16:52;16.10;44.90
33105;DHT22;19476;51.448;6.674;2023-05-24T02:19:23;16.10;45.00
33105;DHT22;19476;51.448;6.674;2023-05-24T02:21:49;16.10;45.10
33105;DHT22;19476;51.448;6.674;2023-05-24T02:24:16;16.00;45.10
33105;DHT22;19476;51.448;6.674;2023-05-24T02:26:43;16.00;45.20
33105;DHT22;19476;51.448;6.674;2023-05-24T02:29:09;16.00;45.40
33105;DHT22;19476;51.448;6.674;2023-05-24T02:31:35;16.00;45.20
33105;DHT22;19476;51.448;6.674;2023-05-24T02:34:01;16.00;45.30
33105;DHT22;19476;51.448;6.674;2023-05-24T02:36:27;16.00;45.30
33105;DHT22;19476;51.448;6.674;2023-05-24T02:38:53;15.90;45.30
33105;DHT22;19476;51.448;6.674;2023-05-24T02:41:19;15.90;45.40
33105;DHT22;19476;51.448;6.674;2023-05-24T02:43:45;15.80;45.50
33105;DHT22;19476;51.448;6.674;2023-05-24T02:46:12;15.80;45.70
33105;DHT22;19476;51.448;6.674;2023-05-24T02:48:37;15.70;45.60
33105;DHT22;19476;51.448;6.674;2023-05-24T02:51:03;15.80;45.60
33105;DHT22;19476;51.448;6.674;2023-05-24T02:53:29;15.80;45.70
33105;DHT22;19476;51.448;6.674;2023-05-24T02:55:56;15.80;45.80
33105;DHT22;19476;51.448;6.674;2023-05-24T02:58:22;15.80;45.90
33105;DHT22;19476;51.448;6.674;2023-05-24T03:00:48;15.70;45.80
33105;DHT22;19476;51.448;6.674;2023-05-24T03:03:14;15.80;45.90
33105;DHT22;19476;51.448;6.674;2023-05-24T03:05:40;15.80;45.90
33105;DHT22;19476;51.448;6.674;2023-05-24T03:08:06;15.80;45.90
33105;DHT22;19476;51.448;6.674;2023-05-24T03:10:32;15.80;45.90
33105;DHT22;19476;51.448;6.674;2023-05-24T03:12:58;15.80;45.90
33105;DHT22;19476;51.448;6.674;2023-05-24T03:15:24;15.70;45.90
33105;DHT22;19476;51.448;6.674;2023-05-24T03:17:49;15.70;45.90
33105;DHT22;19476;51.448;6.674;2023-05-24T03:20:17;15.70;45.90
33105;DHT22;19476;51.448;6.674;2023-05-24T03:22:43;15.70;46.00
33105;DHT22;19476;51.448;6.674;2023-05-24T03:25:08;15.70;46.00
33105;DHT22;19476;51.448;6.674;2023-05-24T03:27:35;15.70;46.00
33105;DHT22;19476;51.448;6.674;2023-05-24T03:30:01;15.70;46.10
33105;DHT22;19476;51.448;6.674;2023-05-24T03:32:27;15.70;46.00
33105;DHT22;19476;51.448;6.674;2023-05-24T03:34:52;15.70;46.10
33105;DHT22;19476;51.448;6.674;2023-05-24T03:37:19;15.60;46.10
33105;DHT22;19476;51.448;6.674;2023-05-24T03:39:45;15.60;46.10
33105;DHT22;19476;51.448;6.674;2023-05-24T03:42:10;15.70;46.30
33105;DHT22;19476;51.448;6.674;2023-05-24T03:44:36;15.60;46.20
33105;DHT22;19476;51.448;6.674;2023-05-24T03:47:03;15.60;46.30
33105;DHT22;19476;51.448;6.674;2023-05-24T03:49:30;15.60;46.40
33105;DHT22;19476;51.448;6.674;2023-05-24T03:51:56;15.60;46.40
33105;DHT22;19476;51.448;6.674;2023-05-24T03:54:21;15.60;46.40
33105;DHT22;19476;51.448;6.674;2023-05-24T03:56:48;15.60;46.60
33105;DHT22;19476;51.448;6.674;2023-05-24T03:59:14;15.60;46.70
33105;DHT22;19476;51.448;6.674;2023-05-24T04:01:40;15.60;46.70
33105;DHT22;19476;51.448;6.674;2023-05-24T04:04:05;15.60;46.70
33105;DHT22;19476;51.448;6.674;2023-05-24T04:06:31;15.60;46.80
33105;DHT22;19476;51.448;6.674;2023-05-24T04:08:58;15.60;46.80
33105;DHT22;19476;51.448;6.674;2023-05-24T04:11:24;15.60;47.00
33105;DHT22;19476;51.448;6.674;2023-05-24T04:13:54;15.60;47.00
33105;DHT22;19476;51.448;6.674;2023-05-24T04:16:26;15.60;47.10
33105;DHT22;19476;51.448;6.674;2023-05-24T04:18:54;15.60;47.10
33105;DHT22;19476;51.448;6.674;2023-05-24T04:21:20;15.60;47.20
33105;DHT22;19476;51.448;6.674;2023-05-24T04:23:46;15.60;47.10
33105;DHT22;19476;51.448;6.674;2023-05-24T04:26:12;15.60;47.10
33105;DHT22;19476;51.448;6.674;2023-05-24T04:28:38;15.60;47.30
33105;DHT22;19476;51.448;6.674;2023-05-24T04:31:05;15.60;47.30
33105;DHT22;19476;51.448;6.674;2023-05-24T04:33:32;15.70;47.40
33105;DHT22;19476;51.448;6.674;2023-05-24T04:35:58;15.60;47.40
33105;DHT22;19476;51.448;6.674;2023-05-24T04:38:28;15.70;47.50
33105;DHT22;19476;51.448;6.674;2023-05-24T04:40:58;15.70;47.50
33105;DHT22;19476;51.448;6.674;2023-05-24T04:43:24;15.70;47.50
33105;DHT22;19476;51.448;6.674;2023-05-24T04:45:54;15.70;47.60
33105;DHT22;19476;51.448;6.674;2023-05-24T04:48:20;15.70;47.70
33105;DHT22;19476;51.448;6.674;2023-05-24T04:50:50;15.80;47.80
33105;DHT22;19476;51.448;6.674;2023-05-24T04:53:17;15.80;47.90
33105;DHT22;19476;51.448;6.674;2023-05-24T04:55:43;15.80;47.90
33105;DHT22;19476;51.448;6.674;2023-05-24T04:58:09;15.90;47.90
33105;DHT22;19476;51.448;6.674;2023-05-24T05:00:35;15.90;47.90
33105;DHT22;19476;51.448;6.674;2023-05-24T05:03:00;16.00;48.00
33105;DHT22;19476;51.448;6.674;2023-05-24T05:05:27;16.00;48.10
33105;DHT22;19476;51.448;6.674;2023-05-24T05:07:52;16.00;48.10
33105;DHT22;19476;51.448;6.674;2023-05-24T05:10:18;16.10;48.10
33105;DHT22;19476;51.448;6.674;2023-05-24T05:12:44;16.10;48.00
33105;DHT22;19476;51.448;6.674;2023-05-24T05:15:10;16.10;48.10
33105;DHT22;19476;51.448;6.674;2023-05-24T05:17:36;16.20;48.20
33105;DHT22;19476;51.448;6.674;2023-05-24T05:20:03;16.20;48.10
33105;DHT22;19476;51.448;6.674;2023-05-24T05:22:29;16.20;48.20
33105;DHT22;19476;51.448;6.674;2023-05-24T05:24:55;16.20;48.10
33105;DHT22;19476;51.448;6.674;2023-05-24T05:27:21;16.30;48.60
33105;DHT22;19476;51.448;6.674;2023-05-24T05:29:46;16.30;48.00
33105;DHT22;19476;51.448;6.674;2023-05-24T05:32:12;16.30;48.00
33105;DHT22;19476;51.448;6.674;2023-05-24T05:34:38;16.30;48.00
33105;DHT22;19476;51.448;6.674;2023-05-24T05:37:04;16.30;48.60
33105;DHT22;19476;51.448;6.674;2023-05-24T05:39:29;16.30;48.00
33105;DHT22;19476;51.448;6.674;2023-05-24T05:41:56;16.30;47.90
33105;DHT22;19476;51.448;6.674;2023-05-24T05:44:22;16.40;48.00
33105;DHT22;19476;51.448;6.674;2023-05-24T05:46:48;16.30;48.00
33105;DHT22;19476;51.448;6.674;2023-05-24T05:49:14;16.40;48.00
33105;DHT22;19476;51.448;6.674;2023-05-24T05:51:41;16.40;48.10
33105;DHT22;19476;51.448;6.674;2023-05-24T05:54:07;16.40;48.00
33105;DHT22;19476;51.448;6.674;2023-05-24T05:56:39;16.50;48.00
33105;DHT22;19476;51.448;6.674;2023-05-24T05:59:10;16.50;48.00
33105;DHT22;19476;51.448;6.674;2023-05-24T06:01:36;16.50;48.00
33105;DHT22;19476;51.448;6.674;2023-05-24T06:04:02;16.50;47.90
33105;DHT22;19476;51.448;6.674;2023-05-24T06:06:28;16.50;48.00
33105;DHT22;19476;51.448;6.674;2023-05-24T06:08:53;16.50;48.00
33105;DHT22;19476;51.448;6.674;2023-05-24T06:11:19;16.60;48.10
33105;DHT22;19476;51.448;6.674;2023-05-24T06:13:45;16.60;48.10
33105;DHT22;19476;51.448;6.674;2023-05-24T06:16:11;16.60;48.20
33105;DHT22;19476;51.448;6.674;2023-05-24T06:18:37;16.60;48.30
33105;DHT22;19476;51.448;6.674;2023-05-24T06:21:03;16.60;48.30
33105;DHT22;19476;51.448;6.674;2023-05-24T06:23:28;16.70;48.20
33105;DHT22;19476;51.448;6.674;2023-05-24T06:25:54;16.80;48.20
33105;DHT22;19476;51.448;6.674;2023-05-24T06:28:20;16.90;48.20
33105;DHT22;19476;51.448;6.674;2023-05-24T06:30:47;16.90;48.10
33105;DHT22;19476;51.448;6.674;2023-05-24T06:33:12;17.10;48.00
33105;DHT22;19476;51.448;6.674;2023-05-24T06:35:38;17.20;48.00
33105;DHT22;19476;51.448;6.674;2023-05-24T06:38:04;17.20;47.90
33105;DHT22;19476;51.448;6.674;2023-05-24T06:40:30;17.30;47.70
33105;DHT22;19476;51.448;6.674;2023-05-24T06:42:56;17.30;47.70
33105;DHT22;19476;51.448;6.674;2023-05-24T06:45:23;17.40;47.70
33105;DHT22;19476;51.448;6.674;2023-05-24T06:47:48;17.40;47.60
33105;DHT22;19476;51.448;6.674;2023-05-24T06:50:14;17.50;47.50
33105;DHT22;19476;51.448;6.674;2023-05-24T06:52:41;17.50;47.40
33105;DHT22;19476;51.448;6.674;2023-05-24T06:55:07;17.50;47.30
33105;DHT22;19476;51.448;6.674;2023-05-24T06:57:33;17.50;47.30
33105;DHT22;19476;51.448;6.674;2023-05-24T06:59:58;17.50;47.30
33105;DHT22;19476;51.448;6.674;2023-05-24T07:02:24;17.50;47.30
33105;DHT22;19476;51.448;6.674;2023-05-24T07:04:53;17.50;47.30
33105;DHT22;19476;51.448;6.674;2023-05-24T07:07:19;17.50;47.40
33105;DHT22;19476;51.448;6.674;2023-05-24T07:09:45;17.60;47.50
33105;DHT22;19476;51.448;6.674;2023-05-24T07:12:12;17.60;47.40
33105;DHT22;19476;51.448;6.674;2023-05-24T07:14:37;17.50;47.30
33105;DHT22;19476;51.448;6.674;2023-05-24T07:17:03;17.50;47.20
33105;DHT22;19476;51.448;6.674;2023-05-24T07:19:30;17.60;47.10
33105;DHT22;19476;51.448;6.674;2023-05-24T07:21:58;17.60;47.20
33105;DHT22;19476;51.448;6.674;2023-05-24T07:24:24;17.60;47.20
33105;DHT22;19476;51.448;6.674;2023-05-24T07:26:50;17.70;47.20
33105;DHT22;19476;51.448;6.674;2023-05-24T07:29:18;17.70;47.10
33105;DHT22;19476;51.448;6.674;2023-05-24T07:31:45;17.70;47.10
33105;DHT22;19476;51.448;6.674;2023-05-24T07:34:12;17.70;47.10
33105;DHT22;19476;51.448;6.674;2023-05-24T07:36:38;17.70;47.10
33105;DHT22;19476;51.448;6.674;2023-05-24T07:39:05;17.80;47.20
33105;DHT22;19476;51.448;6.674;2023-05-24T07:41:34;17.80;47.20
33105;DHT22;19476;51.448;6.674;2023-05-24T07:44:00;17.90;47.20
33105;DHT22;19476;51.448;6.674;2023-05-24T07:46:26;17.90;47.60
33105;DHT22;19476;51.448;6.674;2023-05-24T07:48:52;17.90;47.00
33105;DHT22;19476;51.448;6.674;2023-05-24T07:51:17;18.00;46.90
33105;DHT22;19476;51.448;6.674;2023-05-24T07:53:43;18.10;46.90
33105;DHT22;19476;51.448;6.674;2023-05-24T07:56:09;18.10;46.70
33105;DHT22;19476;51.448;6.674;2023-05-24T07:58:35;18.10;46.50
33105;DHT22;19476;51.448;6.674;2023-05-24T08:01:01;18.20;46.30
33105;DHT22;19476;51.448;6.674;2023-05-24T08:03:26;18.20;46.20
33105;DHT22;19476;51.448;6.674;2023-05-24T08:05:53;18.30;46.10
33105;DHT22;19476;51.448;6.674;2023-05-24T08:08:19;18.30;45.90
33105;DHT22;19476;51.448;6.674;2023-05-24T08:10:44;18.40;45.80
33105;DHT22;19476;51.448;6.674;2023-05-24T08:13:10;18.40;45.60
33105;DHT22;19476;51.448;6.674;2023-05-24T08:15:36;18.40;45.60
33105;DHT22;19476;51.448;6.674;2023-05-24T08:18:02;18.40;45.60
33105;DHT22;19476;51.448;6.674;2023-05-24T08:20:29;18.40;45.60
33105;DHT22;19476;51.448;6.674;2023-05-24T08:22:55;18.50;45.60
33105;DHT22;19476;51.448;6.674;2023-05-24T08:25:21;18.50;45.60
33105;DHT22;19476;51.448;6.674;2023-05-24T08:27:47;18.60;45.60
33105;DHT22;19476;51.448;6.674;2023-05-24T08:30:13;18.60;45.60
33105;DHT22;19476;51.448;6.674;2023-05-24T08:32:39;18.60;45.40
33105;DHT22;19476;51.448;6.674;2023-05-24T08:35:05;18.60;45.20
33105;DHT22;19476;51.448;6.674;2023-05-24T08:37:31;18.60;44.80
33105;DHT22;19476;51.448;6.674;2023-05-24T08:39:57;18.60;44.60
33105;DHT22;19476;51.448;6.674;2023-05-24T08:42:24;18.60;44.60
33105;DHT22;19476;51.448;6.674;2023-05-24T08:45:03;18.60;44.60
33105;DHT22;19476;51.448;6.674;2023-05-24T08:47:32;18.60;44.70
33105;DHT22;19476;51.448;6.674;2023-05-24T08:49:59;18.70;44.70
33105;DHT22;19476;51.448;6.674;2023-05-24T08:52:26;18.70;44.50
33105;DHT22;19476;51.448;6.674;2023-05-24T08:54:53;18.60;44.10
33105;DHT22;19476;51.448;6.674;2023-05-24T08:57:20;18.70;43.80
33105;DHT22;19476;51.448;6.674;2023-05-24T08:59:46;19.00;43.50
33105;DHT22;19476;51.448;6.674;2023-05-24T09:02:14;19.10;43.30
33105;DHT22;19476;51.448;6.674;2023-05-24T09:04:43;19.10;43.00
33105;DHT22;19476;51.448;6.674;2023-05-24T09:07:13;19.20;42.80
33105;DHT22;19476;51.448;6.674;2023-05-24T09:09:42;19.30;42.40
33105;DHT22;19476;51.448;6.674;2023-05-24T09:12:15;19.40;42.20
33105;DHT22;19476;51.448;6.674;2023-05-24T09:14:49;19.50;42.10
33105;DHT22;19476;51.448;6.674;2023-05-24T09:17:15;19.60;41.90
33105;DHT22;19476;51.448;6.674;2023-05-24T09:19:44;19.60;41.70
33105;DHT22;19476;51.448;6.674;2023-05-24T09:22:14;19.80;41.40
33105;DHT22;19476;51.448;6.674;2023-05-24T09:24:46;19.90;41.30
33105;DHT22;19476;51.448;6.674;2023-05-24T09:27:16;20.00;40.40
33105;DHT22;19476;51.448;6.674;2023-05-24T09:29:42;19.90;40.30
33105;DHT22;19476;51.448;6.674;2023-05-24T09:32:14;20.00;40.60
33105;DHT22;19476;51.448;6.674;2023-05-24T09:34:44;20.10;40.50
33105;DHT22;19476;51.448;6.674;2023-05-24T09:37:21;20.10;40.30
33105;DHT22;19476;51.448;6.674;2023-05-24T09:39:52;20.10;40.30
33105;DHT22;19476;51.448;6.674;2023-05-24T09:42:23;20.10;40.40
33105;DHT22;19476;51.448;6.674;2023-05-24T09:47:33;20.10;39.60
33105;DHT22;19476;51.448;6.674;2023-05-24T09:50:03;20.10;39.60
33105;DHT22;19476;51.448;6.674;2023-05-24T09:52:34;20.10;39.80
33105;DHT22;19476;51.448;6.674;2023-05-24T09:55:18;20.00;39.80
33105;DHT22;19476;51.448;6.674;2023-05-24T09:58:07;20.00;39.30
33105;DHT22;19476;51.448;6.674;2023-05-24T10:00:40;20.10;39.70
33105;DHT22;19476;51.448;6.674;2023-05-24T10:03:08;20.10;39.70
33105;DHT22;19476;51.448;6.674;2023-05-24T10:05:40;20.20;40.00
33105;DHT22;19476;51.448;6.674;2023-05-24T10:08:06;20.20;39.60
33105;DHT22;19476;51.448;6.674;2023-05-24T10:10:34;20.30;39.50
33105;DHT22;19476;51.448;6.674;2023-05-24T10:13:03;20.40;39.50
33105;DHT22;19476;51.448;6.674;2023-05-24T10:15:29;20.40;39.20
33105;DHT22;19476;51.448;6.674;2023-05-24T10:17:59;20.50;39.30
33105;DHT22;19476;51.448;6.674;2023-05-24T10:20:26;20.60;38.20
33105;DHT22;19476;51.448;6.674;2023-05-24T10:22:58;20.60;38.30
33105;DHT22;19476;51.448;6.674;2023-05-24T10:25:27;20.60;37.90
33105;DHT22;19476;51.448;6.674;2023-05-24T10:28:05;20.60;37.90
33105;DHT22;19476;51.448;6.674;2023-05-24T10:33:00;20.60;38.00
33105;DHT22;19476;51.448;6.674;2023-05-24T10:35:28;20.70;38.20
33105;DHT22;19476;51.448;6.674;2023-05-24T10:37:54;20.70;38.00
33105;DHT22;19476;51.448;6.674;2023-05-24T10:40:21;20.70;38.00
33105;DHT22;19476;51.448;6.674;2023-05-24T10:42:50;20.80;38.30
33105;DHT22;19476;51.448;6.674;2023-05-24T10:47:48;20.80;38.20
33105;DHT22;19476;51.448;6.674;2023-05-24T10:50:18;20.80;38.40
33105;DHT22;19476;51.448;6.674;2023-05-24T10:52:45;20.80;38.00
33105;DHT22;19476;51.448;6.674;2023-05-24T10:55:14;20.80;38.30
33105;DHT22;19476;51.448;6.674;2023-05-24T10:57:40;20.90;38.10
33105;DHT22;19476;51.448;6.674;2023-05-24T11:02:53;20.90;38.00
33105;DHT22;19476;51.448;6.674;2023-05-24T11:05:24;20.90;38.20
33105;DHT22;19476;51.448;6.674;2023-05-24T11:07:58;20.90;38.00
33105;DHT22;19476;51.448;6.674;2023-05-24T11:10:30;20.80;38.00
33105;DHT22;19476;51.448;6.674;2023-05-24T11:13:00;20.70;38.10
33105;DHT22;19476;51.448;6.674;2023-05-24T11:15:27;20.70;38.30
33105;DHT22;19476;51.448;6.674;2023-05-24T11:20:40;20.70;38.60
33105;DHT22;19476;51.448;6.674;2023-05-24T11:23:08;20.70;38.40
33105;DHT22;19476;51.448;6.674;2023-05-24T11:25:34;20.70;38.20
33105;DHT22;19476;51.448;6.674;2023-05-24T11:28:06;20.70;38.00
33105;DHT22;19476;51.448;6.674;2023-05-24T11:30:46;20.70;37.60
33105;DHT22;19476;51.448;6.674;2023-05-24T11:33:25;20.70;37.50
33105;DHT22;19476;51.448;6.674;2023-05-24T11:35:53;20.60;37.40
33105;DHT22;19476;51.448;6.674;2023-05-24T11:38:20;20.60;38.30
33105;DHT22;19476;51.448;6.674;2023-05-24T11:40:51;20.60;38.00
33105;DHT22;19476;51.448;6.674;2023-05-24T11:43:20;20.50;38.00
33105;DHT22;19476;51.448;6.674;2023-05-24T11:45:50;20.50;37.90
33105;DHT22;19476;51.448;6.674;2023-05-24T11:48:17;20.50;37.90
33105;DHT22;19476;51.448;6.674;2023-05-24T11:50:47;20.50;38.00
33105;DHT22;19476;51.448;6.674;2023-05-24T11:53:15;20.50;37.90
33105;DHT22;19476;51.448;6.674;2023-05-24T11:55:45;20.50;38.10
33105;DHT22;19476;51.448;6.674;2023-05-24T11:58:27;20.50;38.10
33105;DHT22;19476;51.448;6.674;2023-05-24T12:00:57;20.60;38.00
33105;DHT22;19476;51.448;6.674;2023-05-24T12:03:23;20.60;38.40
33105;DHT22;19476;51.448;6.674;2023-05-24T12:05:49;20.60;38.20
33105;DHT22;19476;51.448;6.674;2023-05-24T12:08:14;20.70;38.00
33105;DHT22;19476;51.448;6.674;2023-05-24T12:10:47;20.70;37.90
33105;DHT22;19476;51.448;6.674;2023-05-24T12:13:27;20.70;37.70
33105;DHT22;19476;51.448;6.674;2023-05-24T12:16:07;20.80;37.80
33105;DHT22;19476;51.448;6.674;2023-05-24T12:18:37;20.80;37.90
33105;DHT22;19476;51.448;6.674;2023-05-24T12:21:07;20.80;37.80
33105;DHT22;19476;51.448;6.674;2023-05-24T12:23:34;20.70;37.40
33105;DHT22;19476;51.448;6.674;2023-05-24T12:26:01;20.90;37.50
33105;DHT22;19476;51.448;6.674;2023-05-24T12:28:31;20.90;37.50
33105;DHT22;19476;51.448;6.674;2023-05-24T12:31:00;21.00;37.80
33105;DHT22;19476;51.448;6.674;2023-05-24T12:33:26;21.00;37.80
33105;DHT22;19476;51.448;6.674;2023-05-24T12:35:53;21.10;37.90
33105;DHT22;19476;51.448;6.674;2023-05-24T12:38:19;21.20;37.90
33105;DHT22;19476;51.448;6.674;2023-05-24T12:40:50;21.30;37.90
33105;DHT22;19476;51.448;6.674;2023-05-24T12:43:18;21.40;37.60
33105;DHT22;19476;51.448;6.674;2023-05-24T12:45:46;21.60;37.40
33105;DHT22;19476;51.448;6.674;2023-05-24T12:48:13;21.70;37.00
33105;DHT22;19476;51.448;6.674;2023-05-24T12:50:39;21.80;37.00
33105;DHT22;19476;51.448;6.674;2023-05-24T12:53:05;21.90;36.90
33105;DHT22;19476;51.448;6.674;2023-05-24T12:55:31;22.00;36.90
33105;DHT22;19476;51.448;6.674;2023-05-24T12:57:57;22.10;36.60
33105;DHT22;19476;51.448;6.674;2023-05-24T13:00:25;22.30;36.40
33105;DHT22;19476;51.448;6.674;2023-05-24T13:02:55;22.40;35.90
33105;DHT22;19476;51.448;6.674;2023-05-24T13:05:24;22.40;35.90
33105;DHT22;19476;51.448;6.674;2023-05-24T13:07:51;22.40;35.80
33105;DHT22;19476;51.448;6.674;2023-05-24T13:10:17;22.40;35.70
33105;DHT22;19476;51.448;6.674;2023-05-24T13:12:46;22.40;35.70
33105;DHT22;19476;51.448;6.674;2023-05-24T13:15:13;22.20;35.60
33105;DHT22;19476;51.448;6.674;2023-05-24T13:17:40;22.40;35.80
33105;DHT22;19476;51.448;6.674;2023-05-24T13:20:07;22.40;35.70
33105;DHT22;19476;51.448;6.674;2023-05-24T13:22:36;22.30;35.60
33105;DHT22;19476;51.448;6.674;2023-05-24T13:25:06;22.30;35.70
33105;DHT22;19476;51.448;6.674;2023-05-24T13:27:33;22.30;35.50
33105;DHT22;19476;51.448;6.674;2023-05-24T13:29:59;22.20;35.50
33105;DHT22;19476;51.448;6.674;2023-05-24T13:32:24;22.20;35.70
33105;DHT22;19476;51.448;6.674;2023-05-24T13:34:50;22.20;35.90
33105;DHT22;19476;51.448;6.674;2023-05-24T13:37:16;22.20;36.00
33105;DHT22;19476;51.448;6.674;2023-05-24T13:39:42;22.20;36.00
33105;DHT22;19476;51.448;6.674;2023-05-24T13:42:08;22.30;36.10
33105;DHT22;19476;51.448;6.674;2023-05-24T13:44:35;22.40;36.10
33105;DHT22;19476;51.448;6.674;2023-05-24T13:47:01;22.40;36.20
33105;DHT22;19476;51.448;6.674;2023-05-24T13:49:27;22.50;36.10
33105;DHT22;19476;51.448;6.674;2023-05-24T13:51:54;22.60;35.90
33105;DHT22;19476;51.448;6.674;2023-05-24T13:54:20;22.60;35.80
33105;DHT22;19476;51.448;6.674;2023-05-24T13:56:47;22.60;35.60
33105;DHT22;19476;51.448;6.674;2023-05-24T13:59:14;22.60;35.60
33105;DHT22;19476;51.448;6.674;2023-05-24T14:01:40;22.70;35.70
33105;DHT22;19476;51.448;6.674;2023-05-24T14:04:06;22.60;35.50
33105;DHT22;19476;51.448;6.674;2023-05-24T14:06:33;22.50;35.90
33105;DHT22;19476;51.448;6.674;2023-05-24T14:08:59;22.60;35.50
33105;DHT22;19476;51.448;6.674;2023-05-24T14:11:25;22.50;35.40
33105;DHT22;19476;51.448;6.674;2023-05-24T14:13:52;22.50;35.50
33105;DHT22;19476;51.448;6.674;2023-05-24T14:16:18;22.50;35.60
33105;DHT22;19476;51.448;6.674;2023-05-24T14:18:44;22.40;35.70
33105;DHT22;19476;51.448;6.674;2023-05-24T14:21:10;22.40;35.70
33105;DHT22;19476;51.448;6.674;2023-05-24T14:23:37;22.40;35.90
33105;DHT22;19476;51.448;6.674;2023-05-24T14:26:03;22.40;36.00
33105;DHT22;19476;51.448;6.674;2023-05-24T14:28:29;22.50;35.90
33105;DHT22;19476;51.448;6.674;2023-05-24T14:30:54;22.50;35.90
33105;DHT22;19476;51.448;6.674;2023-05-24T14:33:20;22.50;35.80
33105;DHT22;19476;51.448;6.674;2023-05-24T14:35:46;22.60;35.70
33105;DHT22;19476;51.448;6.674;2023-05-24T14:38:12;22.60;35.70
33105;DHT22;19476;51.448;6.674;2023-05-24T14:40:38;22.60;35.50
33105;DHT22;19476;51.448;6.674;2023-05-24T14:43:05;22.60;35.60
33105;DHT22;19476;51.448;6.674;2023-05-24T14:45:32;22.60;35.60
33105;DHT22;19476;51.448;6.674;2023-05-24T14:47:58;22.60;35.60
33105;DHT22;19476;51.448;6.674;2023-05-24T14:50:25;22.60;35.80
33105;DHT22;19476;51.448;6.674;2023-05-24T14:52:51;22.60;35.90
33105;DHT22;19476;51.448;6.674;2023-05-24T14:55:17;22.70;35.80
33105;DHT22;19476;51.448;6.674;2023-05-24T14:57:43;22.70;35.90
33105;DHT22;19476;51.448;6.674;2023-05-24T15:00:09;22.70;35.80
33105;DHT22;19476;51.448;6.674;2023-05-24T15:02:36;22.70;35.70
33105;DHT22;19476;51.448;6.674;2023-05-24T15:05:03;22.70;35.60
33105;DHT22;19476;51.448;6.674;2023-05-24T15:07:29;22.70;35.50
33105;DHT22;19476;51.448;6.674;2023-05-24T15:09:55;22.70;35.60
33105;DHT22;19476;51.448;6.674;2023-05-24T15:12:21;22.60;35.50
33105;DHT22;19476;51.448;6.674;2023-05-24T15:14:47;22.60;35.50
33105;DHT22;19476;51.448;6.674;2023-05-24T15:17:13;22.50;35.70
33105;DHT22;19476;51.448;6.674;2023-05-24T15:19:39;22.50;35.90
33105;DHT22;19476;51.448;6.674;2023-05-24T15:22:06;22.50;35.90
33105;DHT22;19476;51.448;6.674;2023-05-24T15:24:32;22.50;35.90
33105;DHT22;19476;51.448;6.674;2023-05-24T15:26:58;22.40;35.90
33105;DHT22;19476;51.448;6.674;2023-05-24T15:29:23;22.40;36.40
33105;DHT22;19476;51.448;6.674;2023-05-24T15:31:49;22.50;35.80
33105;DHT22;19476;51.448;6.674;2023-05-24T15:34:15;22.40;35.80
33105;DHT22;19476;51.448;6.674;2023-05-24T15:36:41;22.40;35.90
33105;DHT22;19476;51.448;6.674;2023-05-24T15:39:07;22.40;35.70
33105;DHT22;19476;51.448;6.674;2023-05-24T15:41:33;22.40;35.80
33105;DHT22;19476;51.448;6.674;2023-05-24T15:43:59;22.40;35.90
33105;DHT22;19476;51.448;6.674;2023-05-24T15:46:27;22.40;35.90
33105;DHT22;19476;51.448;6.674;2023-05-24T15:48:53;22.40;36.00
33105;DHT22;19476;51.448;6.674;2023-05-24T15:51:18;22.40;36.10
33105;DHT22;19476;51.448;6.674;2023-05-24T15:53:44;22.40;36.20
33105;DHT22;19476;51.448;6.674;2023-05-24T15:56:10;22.40;36.10
33105;DHT22;19476;51.448;6.674;2023-05-24T15:58:36;22.40;36.10